sensor_id;sensor_type;location;lat;lon;timestamp;pressure;altitude;pressure_sealevel;temperature;humidity
76866;BME280;66647;52.124;5.416;2024-01-30T00:00:42;102718.88;;;6.36;100.00
76866;BME280;66647;52.124;5.416;2024-01-30T00:03:08;102726.22;;;6.36;100.00
76866;BME280;66647;52.124;5.416;2024-01-30T00:05:35;102718.78;;;6.31;100.00
76866;BME280;66647;52.124;5.416;2024-01-30T00:08:02;102715.25;;;6.31;100.00
76866;BME280;66647;52.124;5.416;2024-01-30T00:10:28;102717.72;;;6.32;100.00
76866;BME280;66647;52.124;5.416;2024-01-30T00:12:55;102724.00;;;6.33;100.00
76866;BME280;66647;52.124;5.416;2024-01-30T00:15:21;102721.28;;;6.33;100.00
76866;BME280;66647;52.124;5.416;2024-01-30T00:17:49;102720.44;;;6.32;100.00
76866;BME280;66647;52.124;5.416;2024-01-30T00:20:18;102717.97;;;6.31;100.00
76866;BME280;66647;52.124;5.416;2024-01-30T00:22:51;102720.38;;;6.27;100.00
76866;BME280;66647;52.124;5.416;2024-01-30T00:25:18;102721.44;;;6.26;100.00
76866;BME280;66647;52.124;5.416;2024-01-30T00:27:45;102721.94;;;6.23;100.00
76866;BME280;66647;52.124;5.416;2024-01-30T00:30:13;102716.16;;;6.20;100.00
76866;BME280;66647;52.124;5.416;2024-01-30T00:32:40;102715.09;;;6.21;100.00
76866;BME280;66647;52.124;5.416;2024-01-30T00:35:06;102712.38;;;6.21;100.00
76866;BME280;66647;52.124;5.416;2024-01-30T00:37:33;102719.41;;;6.17;100.00
76866;BME280;66647;52.124;5.416;2024-01-30T00:40:00;102713.63;;;6.13;100.00
76866;BME280;66647;52.124;5.416;2024-01-30T00:42:26;102707.63;;;6.11;100.00
76866;BME280;66647;52.124;5.416;2024-01-30T00:44:54;102710.00;;;6.07;100.00
76866;BME280;66647;52.124;5.416;2024-01-30T00:47:21;102711.09;;;6.06;100.00
76866;BME280;66647;52.124;5.416;2024-01-30T00:49:50;102709.94;;;6.02;100.00
76866;BME280;66647;52.124;5.416;2024-01-30T00:52:17;102708.78;;;5.98;100.00
76866;BME280;66647;52.124;5.416;2024-01-30T00:54:44;102706.06;;;5.98;100.00
76866;BME280;66647;52.124;5.416;2024-01-30T00:57:10;102706.06;;;5.98;100.00
76866;BME280;66647;52.124;5.416;2024-01-30T00:59:37;102713.41;;;5.98;100.00
76866;BME280;66647;52.124;5.416;2024-01-30T01:02:04;102708.94;;;5.92;100.00
76866;BME280;66647;52.124;5.416;2024-01-30T01:04:30;102703.50;;;5.92;100.00
76866;BME280;66647;52.124;5.416;2024-01-30T01:06:59;102703.50;;;5.92;100.00
76866;BME280;66647;52.124;5.416;2024-01-30T01:09:26;102704.91;;;5.94;100.00
76866;BME280;66647;52.124;5.416;2024-01-30T01:11:53;102700.59;;;5.98;100.00
76866;BME280;66647;52.124;5.416;2024-01-30T01:14:19;102702.25;;;5.99;100.00
76866;BME280;66647;52.124;5.416;2024-01-30T01:16:48;102700.13;;;6.01;100.00
76866;BME280;66647;52.124;5.416;2024-01-30T01:19:17;102697.06;;;5.98;100.00
76866;BME280;66647;52.124;5.416;2024-01-30T01:21:44;102693.25;;;5.99;100.00
76866;BME280;66647;52.124;5.416;2024-01-30T01:24:11;102683.19;;;5.99;100.00
76866;BME280;66647;52.124;5.416;2024-01-30T01:26:37;102685.44;;;6.02;100.00
76866;BME280;66647;52.124;5.416;2024-01-30T01:29:04;102677.81;;;6.04;100.00
76866;BME280;66647;52.124;5.416;2024-01-30T01:31:37;102668.09;;;6.09;100.00
76866;BME280;66647;52.124;5.416;2024-01-30T01:34:10;102679.81;;;6.09;100.00
76866;BME280;66647;52.124;5.416;2024-01-30T01:36:37;102681.13;;;6.06;100.00
76866;BME280;66647;52.124;5.416;2024-01-30T01:39:06;102672.72;;;6.08;100.00
76866;BME280;66647;52.124;5.416;2024-01-30T01:41:36;102666.69;;;6.06;100.00
76866;BME280;66647;52.124;5.416;2024-01-30T01:44:03;102677.00;;;6.04;100.00
76866;BME280;66647;52.124;5.416;2024-01-30T01:46:31;102675.34;;;6.03;100.00
76866;BME280;66647;52.124;5.416;2024-01-30T01:49:00;102675.34;;;6.03;100.00
76866;BME280;66647;52.124;5.416;2024-01-30T01:51:29;102679.41;;;6.00;100.00
76866;BME280;66647;52.124;5.416;2024-01-30T01:53:58;102677.75;;;5.99;100.00
76866;BME280;66647;52.124;5.416;2024-01-30T01:56:29;102674.22;;;5.99;100.00
76866;BME280;66647;52.124;5.416;2024-01-30T01:58:59;102675.28;;;5.98;100.00
76866;BME280;66647;52.124;5.416;2024-01-30T02:01:28;102674.44;;;5.97;100.00
76866;BME280;66647;52.124;5.416;2024-01-30T02:03:55;102676.09;;;5.98;100.00
76866;BME280;66647;52.124;5.416;2024-01-30T02:06:23;102677.19;;;5.97;100.00
76866;BME280;66647;52.124;5.416;2024-01-30T02:08:50;102670.31;;;5.95;100.00
76866;BME280;66647;52.124;5.416;2024-01-30T02:11:18;102670.31;;;5.95;100.00
76866;BME280;66647;52.124;5.416;2024-01-30T02:13:46;102667.34;;;5.96;100.00
76866;BME280;66647;52.124;5.416;2024-01-30T02:16:13;102670.09;;;5.96;100.00
76866;BME280;66647;52.124;5.416;2024-01-30T02:18:40;102657.03;;;5.98;100.00
76866;BME280;66647;52.124;5.416;2024-01-30T02:21:12;102663.88;;;6.01;100.00
76866;BME280;66647;52.124;5.416;2024-01-30T02:23:39;102662.97;;;5.95;100.00
76866;BME280;66647;52.124;5.416;2024-01-30T02:26:07;102664.31;;;5.93;100.00
76866;BME280;66647;52.124;5.416;2024-01-30T02:28:33;102667.84;;;5.93;100.00
76866;BME280;66647;52.124;5.416;2024-01-30T02:31:00;102681.22;;;5.95;100.00
76866;BME280;66647;52.124;5.416;2024-01-30T02:33:26;102672.22;;;5.94;100.00
76866;BME280;66647;52.124;5.416;2024-01-30T02:35:53;102673.28;;;5.93;100.00
76866;BME280;66647;52.124;5.416;2024-01-30T02:38:20;102671.16;;;5.95;100.00
76866;BME280;66647;52.124;5.416;2024-01-30T02:40:49;102673.63;;;5.97;100.00
76866;BME280;66647;52.124;5.416;2024-01-30T02:43:16;102670.31;;;5.95;100.00
76866;BME280;66647;52.124;5.416;2024-01-30T02:45:43;102666.78;;;5.94;100.00
76866;BME280;66647;52.124;5.416;2024-01-30T02:48:10;102667.84;;;5.93;100.00
76866;BME280;66647;52.124;5.416;2024-01-30T02:50:36;102668.09;;;5.92;100.00
76866;BME280;66647;52.124;5.416;2024-01-30T02:53:03;102656.97;;;5.93;100.00
76866;BME280;66647;52.124;5.416;2024-01-30T02:55:30;102647.97;;;5.93;100.00
76866;BME280;66647;52.124;5.416;2024-01-30T02:57:57;102652.84;;;5.91;100.00
76866;BME280;66647;52.124;5.416;2024-01-30T03:00:26;102648.22;;;5.91;100.00
76866;BME280;66647;52.124;5.416;2024-01-30T03:02:53;102650.44;;;5.94;100.00
76866;BME280;66647;52.124;5.416;2024-01-30T03:05:20;102647.72;;;5.94;100.00
76866;BME280;66647;52.124;5.416;2024-01-30T03:07:48;102653.16;;;5.94;100.00
76866;BME280;66647;52.124;5.416;2024-01-30T03:10:16;102645.00;;;5.94;100.00
76866;BME280;66647;52.124;5.416;2024-01-30T03:12:42;102640.38;;;5.95;100.00
76866;BME280;66647;52.124;5.416;2024-01-30T03:15:09;102634.34;;;5.93;100.00
76866;BME280;66647;52.124;5.416;2024-01-30T03:17:36;102632.47;;;5.93;100.00
76866;BME280;66647;52.124;5.416;2024-01-30T03:20:04;102619.66;;;5.94;100.00
76866;BME280;66647;52.124;5.416;2024-01-30T03:22:32;102620.50;;;5.94;100.00
76866;BME280;66647;52.124;5.416;2024-01-30T03:24:59;102621.06;;;5.96;100.00
76866;BME280;66647;52.124;5.416;2024-01-30T03:27:25;102616.69;;;5.95;100.00
76866;BME280;66647;52.124;5.416;2024-01-30T03:29:52;102626.75;;;5.95;100.00
76866;BME280;66647;52.124;5.416;2024-01-30T03:32:19;102633.03;;;5.95;100.00
76866;BME280;66647;52.124;5.416;2024-01-30T03:34:46;102623.22;;;5.94;100.00
76866;BME280;66647;52.124;5.416;2024-01-30T03:37:13;102626.75;;;5.95;100.00
76866;BME280;66647;52.124;5.416;2024-01-30T03:39:41;102630.31;;;5.95;100.00
76866;BME280;66647;52.124;5.416;2024-01-30T03:42:08;102623.22;;;5.94;100.00
76866;BME280;66647;52.124;5.416;2024-01-30T03:44:35;102606.88;;;5.94;100.00
76866;BME280;66647;52.124;5.416;2024-01-30T03:47:02;102613.72;;;5.97;100.00
76866;BME280;66647;52.124;5.416;2024-01-30T03:49:28;102611.56;;;5.99;100.00
76866;BME280;66647;52.124;5.416;2024-01-30T03:51:58;102612.72;;;6.03;100.00
76866;BME280;66647;52.124;5.416;2024-01-30T03:54:25;102603.81;;;6.07;100.00
76866;BME280;66647;52.124;5.416;2024-01-30T03:56:51;102604.63;;;6.08;100.00
76866;BME280;66647;52.124;5.416;2024-01-30T03:59:18;102607.09;;;6.10;100.00
76866;BME280;66647;52.124;5.416;2024-01-30T04:01:50;102600.06;;;6.14;100.00
76866;BME280;66647;52.124;5.416;2024-01-30T04:04:20;102606.91;;;6.16;100.00
76866;BME280;66647;52.124;5.416;2024-01-30T04:06:47;102606.09;;;6.16;100.00
76866;BME280;66647;52.124;5.416;2024-01-30T04:09:14;102617.00;;;6.16;100.00
76866;BME280;66647;52.124;5.416;2024-01-30T04:11:42;102615.91;;;6.17;100.00
76866;BME280;66647;52.124;5.416;2024-01-30T04:14:10;102613.72;;;6.19;100.00
76866;BME280;66647;52.124;5.416;2024-01-30T04:16:37;102617.03;;;6.21;100.00
76866;BME280;66647;52.124;5.416;2024-01-30T04:19:03;102614.06;;;6.22;100.00
76866;BME280;66647;52.124;5.416;2024-01-30T04:21:33;102620.66;;;6.26;100.00
76866;BME280;66647;52.124;5.416;2024-01-30T04:23:59;102617.91;;;6.26;100.00
76866;BME280;66647;52.124;5.416;2024-01-30T04:26:28;102613.88;;;6.29;100.00
76866;BME280;66647;52.124;5.416;2024-01-30T04:28:55;102608.41;;;6.29;100.00
76866;BME280;66647;52.124;5.416;2024-01-30T04:31:21;102605.69;;;6.29;100.00
76866;BME280;66647;52.124;5.416;2024-01-30T04:33:48;102594.81;;;6.29;100.00
76866;BME280;66647;52.124;5.416;2024-01-30T04:36:15;102592.66;;;6.31;100.00
76866;BME280;66647;52.124;5.416;2024-01-30T04:38:42;102592.66;;;6.31;100.00
76866;BME280;66647;52.124;5.416;2024-01-30T04:41:10;102587.19;;;6.31;100.00
76866;BME280;66647;52.124;5.416;2024-01-30T04:43:38;102589.91;;;6.31;100.00
76866;BME280;66647;52.124;5.416;2024-01-30T04:46:06;102577.13;;;6.31;100.00
76866;BME280;66647;52.124;5.416;2024-01-30T04:48:33;102569.22;;;6.30;100.00
76866;BME280;66647;52.124;5.416;2024-01-30T04:51:00;102584.47;;;6.31;100.00
76866;BME280;66647;52.124;5.416;2024-01-30T04:53:30;102571.69;;;6.31;100.00
76866;BME280;66647;52.124;5.416;2024-01-30T04:55:57;102590.50;;;6.33;100.00
76866;BME280;66647;52.124;5.416;2024-01-30T04:58:24;102589.16;;;6.35;100.00
76866;BME280;66647;52.124;5.416;2024-01-30T05:00:52;102585.88;;;6.33;100.00
76866;BME280;66647;52.124;5.416;2024-01-30T05:03:20;102582.88;;;6.35;100.00
76866;BME280;66647;52.124;5.416;2024-01-30T05:05:50;102585.38;;;6.36;100.00
76866;BME280;66647;52.124;5.416;2024-01-30T05:08:17;102590.81;;;6.36;100.00
76866;BME280;66647;52.124;5.416;2024-01-30T05:10:44;102585.63;;;6.35;100.00
76866;BME280;66647;52.124;5.416;2024-01-30T05:13:10;102582.63;;;6.36;100.00
76866;BME280;66647;52.124;5.416;2024-01-30T05:15:40;102586.19;;;6.37;100.00
76866;BME280;66647;52.124;5.416;2024-01-30T05:18:07;102584.84;;;6.39;100.00
76866;BME280;66647;52.124;5.416;2024-01-30T05:20:33;102596.31;;;6.42;100.00
76866;BME280;66647;52.124;5.416;2024-01-30T05:23:00;102581.38;;;6.44;100.00
76866;BME280;66647;52.124;5.416;2024-01-30T05:25:27;102569.97;;;6.47;100.00
76866;BME280;66647;52.124;5.416;2024-01-30T05:27:55;102571.38;;;6.55;100.00
76866;BME280;66647;52.124;5.416;2024-01-30T05:30:22;102564.91;;;6.61;100.00
76866;BME280;66647;52.124;5.416;2024-01-30T05:32:48;102565.22;;;6.64;100.00
76866;BME280;66647;52.124;5.416;2024-01-30T05:35:16;102553.81;;;6.67;100.00
76866;BME280;66647;52.124;5.416;2024-01-30T05:37:42;102559.25;;;6.67;100.00
76866;BME280;66647;52.124;5.416;2024-01-30T05:40:09;102556.53;;;6.67;100.00
76866;BME280;66647;52.124;5.416;2024-01-30T05:42:36;102560.09;;;6.68;100.00
76866;BME280;66647;52.124;5.416;2024-01-30T05:45:04;102571.00;;;6.68;100.00
76866;BME280;66647;52.124;5.416;2024-01-30T05:47:31;102584.38;;;6.69;100.00
76866;BME280;66647;52.124;5.416;2024-01-30T05:49:58;102573.72;;;6.68;100.00
76866;BME280;66647;52.124;5.416;2024-01-30T05:52:25;102559.25;;;6.67;100.00
76866;BME280;66647;52.124;5.416;2024-01-30T05:54:51;102571.00;;;6.68;100.00
76866;BME280;66647;52.124;5.416;2024-01-30T05:57:18;102577.25;;;6.68;100.00
76866;BME280;66647;52.124;5.416;2024-01-30T05:59:44;102576.19;;;6.69;100.00
76866;BME280;66647;52.124;5.416;2024-01-30T06:02:12;102568.00;;;6.69;100.00
76866;BME280;66647;52.124;5.416;2024-01-30T06:04:39;102584.94;;;6.71;100.00
76866;BME280;66647;52.124;5.416;2024-01-30T06:07:05;102577.84;;;6.70;100.00
76866;BME280;66647;52.124;5.416;2024-01-30T06:09:33;102584.94;;;6.71;100.00
76866;BME280;66647;52.124;5.416;2024-01-30T06:12:07;102580.03;;;6.73;100.00
76866;BME280;66647;52.124;5.416;2024-01-30T06:14:34;102570.78;;;6.74;100.00
76866;BME280;66647;52.124;5.416;2024-01-30T06:17:13;102577.06;;;6.75;100.00
76866;BME280;66647;52.124;5.416;2024-01-30T06:19:40;102577.38;;;6.79;100.00
76866;BME280;66647;52.124;5.416;2024-01-30T06:22:06;102589.94;;;6.80;100.00
76866;BME280;66647;52.124;5.416;2024-01-30T06:24:36;102584.22;;;6.81;100.00
76866;BME280;66647;52.124;5.416;2024-01-30T06:27:02;102576.03;;;6.81;100.00
76866;BME280;66647;52.124;5.416;2024-01-30T06:29:30;102568.41;;;6.83;100.00
76866;BME280;66647;52.124;5.416;2024-01-30T06:32:01;102578.22;;;6.84;100.00
76866;BME280;66647;52.124;5.416;2024-01-30T06:34:28;102584.25;;;6.86;100.00
76866;BME280;66647;52.124;5.416;2024-01-30T06:36:54;102583.16;;;6.87;100.00
76866;BME280;66647;52.124;5.416;2024-01-30T06:39:25;102581.25;;;6.88;100.00
76866;BME280;66647;52.124;5.416;2024-01-30T06:41:52;102586.72;;;6.88;100.00
76866;BME280;66647;52.124;5.416;2024-01-30T06:44:19;102592.47;;;6.91;100.00
76866;BME280;66647;52.124;5.416;2024-01-30T06:46:45;102580.75;;;6.91;100.00
76866;BME280;66647;52.124;5.416;2024-01-30T06:49:13;102601.72;;;6.90;100.00
76866;BME280;66647;52.124;5.416;2024-01-30T06:51:41;102595.47;;;6.90;100.00
76866;BME280;66647;52.124;5.416;2024-01-30T06:54:08;102590.00;;;6.90;100.00
76866;BME280;66647;52.124;5.416;2024-01-30T06:56:35;102585.94;;;6.92;100.00
76866;BME280;66647;52.124;5.416;2024-01-30T06:59:02;102598.25;;;6.95;100.00
76866;BME280;66647;52.124;5.416;2024-01-30T07:01:30;102599.88;;;6.96;100.00
76866;BME280;66647;52.124;5.416;2024-01-30T07:04:01;102597.16;;;6.96;100.00
76866;BME280;66647;52.124;5.416;2024-01-30T07:06:33;102596.59;;;6.94;100.00
76866;BME280;66647;52.124;5.416;2024-01-30T07:08:59;102600.97;;;6.95;100.00
76866;BME280;66647;52.124;5.416;2024-01-30T07:11:26;102599.31;;;6.94;100.00
76866;BME280;66647;52.124;5.416;2024-01-30T07:13:56;102585.16;;;6.97;100.00
76866;BME280;66647;52.124;5.416;2024-01-30T07:16:26;102596.06;;;6.97;100.00
76866;BME280;66647;52.124;5.416;2024-01-30T07:18:53;102594.75;;;6.99;100.00
76866;BME280;66647;52.124;5.416;2024-01-30T07:21:20;102597.22;;;7.01;100.00
76866;BME280;66647;52.124;5.416;2024-01-30T07:23:51;102609.78;;;7.02;100.00
76866;BME280;66647;52.124;5.416;2024-01-30T07:26:18;102614.16;;;7.03;100.00
76866;BME280;66647;52.124;5.416;2024-01-30T07:28:44;102602.16;;;7.04;100.00
76866;BME280;66647;52.124;5.416;2024-01-30T07:31:11;102615.53;;;7.05;100.00
76866;BME280;66647;52.124;5.416;2024-01-30T07:33:38;102621.81;;;7.06;100.00
76866;BME280;66647;52.124;5.416;2024-01-30T07:36:05;102615.28;;;7.07;100.00
76866;BME280;66647;52.124;5.416;2024-01-30T07:38:32;102622.94;;;7.10;100.00
76866;BME280;66647;52.124;5.416;2024-01-30T07:40:58;102624.34;;;7.13;100.00
76866;BME280;66647;52.124;5.416;2024-01-30T07:43:25;102620.22;;;7.15;100.00
76866;BME280;66647;52.124;5.416;2024-01-30T07:45:52;102624.06;;;7.14;100.00
76866;BME280;66647;52.124;5.416;2024-01-30T07:48:24;102621.88;;;7.16;100.00
76866;BME280;66647;52.124;5.416;2024-01-30T07:50:51;102623.00;;;7.20;100.00
76866;BME280;66647;52.124;5.416;2024-01-30T07:53:19;102628.53;;;7.25;100.00
76866;BME280;66647;52.124;5.416;2024-01-30T07:55:46;102631.28;;;7.30;100.00
76866;BME280;66647;52.124;5.416;2024-01-30T07:58:13;102626.66;;;7.31;100.00
76866;BME280;66647;52.124;5.416;2024-01-30T08:00:40;102636.81;;;7.35;100.00
76866;BME280;66647;52.124;5.416;2024-01-30T08:03:07;102632.47;;;7.39;100.00
76866;BME280;66647;52.124;5.416;2024-01-30T08:05:36;102635.00;;;7.46;100.00
76866;BME280;66647;52.124;5.416;2024-01-30T08:08:03;102631.19;;;7.52;100.00
76866;BME280;66647;52.124;5.416;2024-01-30T08:10:30;102642.41;;;7.56;100.00
76866;BME280;66647;52.124;5.416;2024-01-30T08:13:09;102633.75;;;7.64;100.00
76866;BME280;66647;52.124;5.416;2024-01-30T08:15:36;102639.25;;;7.69;100.00
76866;BME280;66647;52.124;5.416;2024-01-30T08:18:02;102631.63;;;7.71;100.00
76866;BME280;66647;52.124;5.416;2024-01-30T08:20:29;102625.63;;;7.74;100.00
76866;BME280;66647;52.124;5.416;2024-01-30T08:22:56;102628.66;;;7.78;100.00
76866;BME280;66647;52.124;5.416;2024-01-30T08:25:22;102636.03;;;7.82;100.00
76866;BME280;66647;52.124;5.416;2024-01-30T08:27:49;102639.91;;;7.86;100.00
76866;BME280;66647;52.124;5.416;2024-01-30T08:30:17;102642.41;;;7.93;100.00
76866;BME280;66647;52.124;5.416;2024-01-30T08:32:43;102636.97;;;7.98;100.00
76866;BME280;66647;52.124;5.416;2024-01-30T08:35:10;102637.81;;;8.03;100.00
76866;BME280;66647;52.124;5.416;2024-01-30T08:37:40;102636.22;;;8.07;100.00
76866;BME280;66647;52.124;5.416;2024-01-30T08:40:08;102630.75;;;8.13;100.00
76866;BME280;66647;52.124;5.416;2024-01-30T08:42:38;102635.97;;;8.19;100.00
76866;BME280;66647;52.124;5.416;2024-01-30T08:45:06;102636.00;;;8.24;100.00
76866;BME280;66647;52.124;5.416;2024-01-30T08:47:40;102637.41;;;8.32;100.00
76866;BME280;66647;52.124;5.416;2024-01-30T08:50:51;102627.63;;;8.36;100.00
76866;BME280;66647;52.124;5.416;2024-01-30T08:54:05;102629.56;;;8.40;100.00
76866;BME280;66647;52.124;5.416;2024-01-30T08:56:40;102632.84;;;8.48;100.00
76866;BME280;66647;52.124;5.416;2024-01-30T08:59:08;102641.91;;;8.53;100.00
76866;BME280;66647;52.124;5.416;2024-01-30T09:01:37;102642.47;;;8.60;100.00
76866;BME280;66647;52.124;5.416;2024-01-30T09:04:06;102647.72;;;8.67;100.00
76866;BME280;66647;52.124;5.416;2024-01-30T09:06:54;102635.97;;;8.82;100.00
76866;BME280;66647;52.124;5.416;2024-01-30T09:09:22;102628.34;;;8.94;100.00
76866;BME280;66647;52.124;5.416;2024-01-30T09:11:54;102631.66;;;9.01;100.00
76866;BME280;66647;52.124;5.416;2024-01-30T09:17:52;102636.06;;;9.37;100.00
76866;BME280;66647;52.124;5.416;2024-01-30T09:20:39;102643.69;;;9.46;100.00
76866;BME280;66647;52.124;5.416;2024-01-30T09:24:03;102646.72;;;9.54;100.00
76866;BME280;66647;52.124;5.416;2024-01-30T09:26:33;102648.09;;;9.52;100.00
76866;BME280;66647;52.124;5.416;2024-01-30T09:29:01;102654.66;;;9.51;100.00
76866;BME280;66647;52.124;5.416;2024-01-30T09:31:53;102645.63;;;9.50;100.00
76866;BME280;66647;52.124;5.416;2024-01-30T09:34:22;102656.84;;;9.49;100.00
76866;BME280;66647;52.124;5.416;2024-01-30T09:40:06;102658.22;;;9.51;100.00
76866;BME280;66647;52.124;5.416;2024-01-30T09:42:34;102663.69;;;9.51;100.00
76866;BME280;66647;52.124;5.416;2024-01-30T09:45:50;102651.91;;;9.51;100.00
76866;BME280;66647;52.124;5.416;2024-01-30T09:48:22;102664.50;;;9.52;100.00
76866;BME280;66647;52.124;5.416;2024-01-30T09:50:57;102671.09;;;9.56;100.00
76866;BME280;66647;52.124;5.416;2024-01-30T09:53:25;102671.09;;;9.56;100.00
76866;BME280;66647;52.124;5.416;2024-01-30T09:56:39;102670.81;;;9.57;100.00
76866;BME280;66647;52.124;5.416;2024-01-30T09:59:07;102671.38;;;9.59;100.00
76866;BME280;66647;52.124;5.416;2024-01-30T10:01:35;102673.84;;;9.61;100.00
76866;BME280;66647;52.124;5.416;2024-01-30T10:04:04;102675.47;;;9.62;100.00
76866;BME280;66647;52.124;5.416;2024-01-30T10:06:40;102679.31;;;9.61;100.00
76866;BME280;66647;52.124;5.416;2024-01-30T10:09:08;102686.44;;;9.62;100.00
76866;BME280;66647;52.124;5.416;2024-01-30T10:11:51;102673.84;;;9.66;100.00
76866;BME280;66647;52.124;5.416;2024-01-30T10:17:37;102676.84;;;9.69;100.00
76866;BME280;66647;52.124;5.416;2024-01-30T10:20:08;102677.69;;;9.70;100.00
76866;BME280;66647;52.124;5.416;2024-01-30T10:22:40;102680.97;;;9.72;100.00
76866;BME280;66647;52.124;5.416;2024-01-30T10:25:09;102679.03;;;9.77;100.00
76866;BME280;66647;52.124;5.416;2024-01-30T10:27:39;102670.53;;;9.84;100.00
76866;BME280;66647;52.124;5.416;2024-01-30T10:30:07;102673.81;;;9.91;100.00
76866;BME280;66647;52.124;5.416;2024-01-30T10:32:34;102663.66;;;10.02;100.00
76866;BME280;66647;52.124;5.416;2024-01-30T10:35:02;102683.63;;;10.18;100.00
76866;BME280;66647;52.124;5.416;2024-01-30T10:37:30;102689.94;;;10.28;100.00
76866;BME280;66647;52.124;5.416;2024-01-30T10:40:03;102679.13;;;10.62;100.00
76866;BME280;66647;52.124;5.416;2024-01-30T10:42:43;102679.56;;;10.80;100.00
76866;BME280;66647;52.124;5.416;2024-01-30T10:45:11;102662.66;;;10.62;100.00
76866;BME280;66647;52.124;5.416;2024-01-30T10:47:41;102671.75;;;10.53;100.00
76866;BME280;66647;52.124;5.416;2024-01-30T10:50:09;102689.88;;;10.43;100.00
76866;BME280;66647;52.124;5.416;2024-01-30T10:52:37;102688.56;;;10.36;100.00
76866;BME280;66647;52.124;5.416;2024-01-30T10:55:06;102686.34;;;10.33;100.00
76866;BME280;66647;52.124;5.416;2024-01-30T10:57:34;102690.75;;;10.29;100.00
76866;BME280;66647;52.124;5.416;2024-01-30T11:00:07;102689.13;;;10.28;100.00
76866;BME280;66647;52.124;5.416;2024-01-30T11:02:43;102690.47;;;10.30;100.00
76866;BME280;66647;52.124;5.416;2024-01-30T11:05:14;102698.44;;;10.32;100.00
76866;BME280;66647;52.124;5.416;2024-01-30T11:08:13;102686.09;;;10.34;100.00
76866;BME280;66647;52.124;5.416;2024-01-30T11:10:50;102696.78;;;10.36;100.00
76866;BME280;66647;52.124;5.416;2024-01-30T11:15:10;102695.63;;;10.47;100.00
76866;BME280;66647;52.124;5.416;2024-01-30T11:17:42;102695.44;;;10.93;100.00
76866;BME280;66647;52.124;5.416;2024-01-30T11:20:25;102703.97;;;10.81;100.00
76866;BME280;66647;52.124;5.416;2024-01-30T11:22:55;102696.34;;;10.73;100.00
76866;BME280;66647;52.124;5.416;2024-01-30T11:25:32;102691.44;;;10.70;100.00
76866;BME280;66647;52.124;5.416;2024-01-30T11:28:00;102693.91;;;10.66;100.00
76866;BME280;66647;52.124;5.416;2024-01-30T11:30:31;102703.53;;;10.64;100.00
76866;BME280;66647;52.124;5.416;2024-01-30T11:33:11;102706.28;;;10.59;100.00
76866;BME280;66647;52.124;5.416;2024-01-30T11:36:01;102714.25;;;10.55;100.00
76866;BME280;66647;52.124;5.416;2024-01-30T11:38:29;102717.56;;;10.52;100.00
76866;BME280;66647;52.124;5.416;2024-01-30T11:44:17;102722.00;;;10.38;99.93
76866;BME280;66647;52.124;5.416;2024-01-30T11:47:02;102720.63;;;10.30;100.00
76866;BME280;66647;52.124;5.416;2024-01-30T11:49:31;102728.84;;;10.35;100.00
76866;BME280;66647;52.124;5.416;2024-01-30T11:52:01;102736.53;;;10.33;98.66
76866;BME280;66647;52.124;5.416;2024-01-30T11:54:31;102731.06;;;10.28;99.19
76866;BME280;66647;52.124;5.416;2024-01-30T11:57:10;102732.13;;;10.17;98.24
76866;BME280;66647;52.124;5.416;2024-01-30T11:59:38;102731.59;;;10.10;98.23
76866;BME280;66647;52.124;5.416;2024-01-30T12:02:27;102740.09;;;10.08;98.77
76866;BME280;66647;52.124;5.416;2024-01-30T12:04:57;102729.13;;;10.08;98.99
76866;BME280;66647;52.124;5.416;2024-01-30T12:07:30;102725.88;;;10.06;99.25
76866;BME280;66647;52.124;5.416;2024-01-30T12:09:57;102735.47;;;10.04;98.80
76866;BME280;66647;52.124;5.416;2024-01-30T12:12:31;102733.28;;;10.01;98.61
76866;BME280;66647;52.124;5.416;2024-01-30T12:15:30;102737.94;;;10.00;98.66
76866;BME280;66647;52.124;5.416;2024-01-30T12:18:06;102745.59;;;9.98;98.55
76866;BME280;66647;52.124;5.416;2024-01-30T12:20:34;102751.63;;;9.95;97.74
76866;BME280;66647;52.124;5.416;2024-01-30T12:23:04;102748.63;;;9.97;97.90
76866;BME280;66647;52.124;5.416;2024-01-30T12:25:32;102754.38;;;9.95;96.62
76866;BME280;66647;52.124;5.416;2024-01-30T12:27:59;102760.94;;;9.89;96.24
76866;BME280;66647;52.124;5.416;2024-01-30T12:30:27;102772.44;;;9.81;97.25
76866;BME280;66647;52.124;5.416;2024-01-30T12:32:56;102792.19;;;9.68;97.38
76866;BME280;66647;52.124;5.416;2024-01-30T12:35:25;102802.31;;;9.62;98.69
76866;BME280;66647;52.124;5.416;2024-01-30T12:37:52;102795.44;;;9.55;98.76
76866;BME280;66647;52.124;5.416;2024-01-30T12:40:19;102793.22;;;9.47;98.96
76866;BME280;66647;52.124;5.416;2024-01-30T12:42:50;102783.38;;;9.40;99.23
76866;BME280;66647;52.124;5.416;2024-01-30T12:45:19;102796.22;;;9.35;98.13
76866;BME280;66647;52.124;5.416;2024-01-30T12:47:50;102789.63;;;9.31;97.74
76866;BME280;66647;52.124;5.416;2024-01-30T12:50:20;102797.56;;;9.32;98.42
76866;BME280;66647;52.124;5.416;2024-01-30T12:52:48;102793.75;;;9.33;98.15
76866;BME280;66647;52.124;5.416;2024-01-30T12:55:16;102797.88;;;9.36;98.17
76866;BME280;66647;52.124;5.416;2024-01-30T12:57:43;102784.72;;;9.38;98.14
76866;BME280;66647;52.124;5.416;2024-01-30T13:00:10;102788.28;;;9.38;97.94
76866;BME280;66647;52.124;5.416;2024-01-30T13:02:37;102789.38;;;9.37;96.62
76866;BME280;66647;52.124;5.416;2024-01-30T13:05:04;102797.59;;;9.42;97.09
76866;BME280;66647;52.124;5.416;2024-01-30T13:07:31;102793.22;;;9.41;96.30
76866;BME280;66647;52.124;5.416;2024-01-30T13:09:58;102789.09;;;9.44;96.38
76866;BME280;66647;52.124;5.416;2024-01-30T13:12:31;102790.75;;;9.40;96.64
76866;BME280;66647;52.124;5.416;2024-01-30T13:15:02;102799.53;;;9.42;96.95
76866;BME280;66647;52.124;5.416;2024-01-30T13:17:31;102798.69;;;9.41;96.98